Aérodrome :
LOGIN :

S'inscrire | Disclaimer

   EN    FR    IT 

 










Légende :    VFR   VFR Marginal   IFR   IFR Intensif   IFR Très Intensif
Visi : 
Plafond : 
>= 8 km
>= 3000ft
5 à 8 km
1000 à 3000 ft
1500m à 5 km
500 à 1000 ft
800 à 1500m
200 à 500 ft
< 800m
< 200 ft
Symboles :   Orages  Brouillard  Fortes neiges  Fortes précipitations  Vent > 20 kt
SIGMETs :   Divers  Orages  Givrage  Turbulence  Onde Orograph.  Cendres Volcan.






- Altitude de l'aérodrome : 495 ft
- Code IATA : BUD


LHBP - Budapest Ferihegy

DERNIER METAR :
  • 171830Z 06006KT CAVOK 08/03 Q1019 NOSIG

METARs EXPIRÉS :
  • 171800Z 06007KT CAVOK 08/03 Q1019 NOSIG
  • 171730Z VRB01KT CAVOK 08/03 Q1019 NOSIG
  • 171700Z VRB02KT CAVOK 08/03 Q1019 NOSIG
  • 171630Z VRB01KT CAVOK 08/03 Q1019 NOSIG
  • 171600Z 07004KT CAVOK 10/04 Q1019 NOSIG

TAF TAF LHBP
Valide du 17 à 18h jusqu'au 18 à 18h UTC


171715Z 1718/1818 VRB03KT CAVOK
TEMPO 1718/1722 05007KT
TEMPO 1722/1803 5000 BR
TEMPO 1803/1806 -SHRA BKN040
BECMG 1804/1807 31012KT
TEMPO 1810/1814 31015G25KT SCT030
BECMG 1815/1818 32007KT



MET'MAP, la Météo Aéronautique d'un coup d'oeil ! - Copyright ORBIFLY Décembre 2007 - Disclaimer

ORBIFLY MET'MAP TEAM :

Programmation & Développement : Alexandra Zaïnal
Sur une idée originale de : Baudouin d'Aumeries
Assistance à la programmation : Marc-Olivier Méhu
Soutien technique & logistique : Manuel Goepfert

Contact : metmap@orbifly.com




SOURCES & CREDITS :

   NOAA